^^
Station Historical Data
Daily Summary for April 1, 2017 Units:  English    Metric   Both
« Previous Day
Next Day »
Daily Weekly Monthly Yearly Custom
  High: Low: Average:
Temperature: 48.6 °F 36.2 °F 42.3 °F
Dew Point: 39.6 °F 34.6 °F 36.6 °F
Humidity: 95 % 68 % 81 %
Wind Speed: 13.3 mph 0.0 mph 4.4 mph
Wind Gust: 20.7 mph - -
Wind:- - WSW
Pressure: 30.11 in 29.69 in -
Precipitation: 0.01 in    
Historical Graphs
 
 
Tabular Data for April 1, 2017
Time Temperature Dew Point Pressure Wind Wind Speed Wind Gust Humidity Rainfall Rate (Hourly) solar Conditions
00:02 38.1 °F 36.5 °F 29.69 in NNE 9.7 mph 12.7 mph 94 % 0.00 in 0.0 W/m2 RA
00:07 38.1 °F 36.5 °F 29.70 in NNE 4.8 mph 10.4 mph 94 % 0.00 in 0.0 W/m2 RA
00:12 38.0 °F 36.4 °F 29.70 in NNE 7.2 mph 10.4 mph 94 % 0.00 in 0.0 W/m2 CLR
00:17 38.0 °F 36.4 °F 29.70 in NNE 1.7 mph 5.8 mph 94 % 0.00 in 0.0 W/m2 CLR
00:23 38.0 °F 36.4 °F 29.70 in NNE 4.0 mph 5.0 mph 94 % 0.01 in 0.0 W/m2 RA
00:28 37.9 °F 36.6 °F 29.70 in NNE 5.1 mph 8.1 mph 95 % 0.01 in 0.0 W/m2 RA
00:33 37.9 °F 36.6 °F 29.70 in NNE 4.2 mph 5.8 mph 95 % 0.01 in 0.0 W/m2
00:38 37.9 °F 36.6 °F 29.70 in NNE 5.1 mph 9.2 mph 95 % 0.01 in 0.0 W/m2 CLR
00:43 37.8 °F 36.5 °F 29.70 in NNE 6.2 mph 10.4 mph 95 % 0.01 in 0.0 W/m2 CLR
00:48 37.8 °F 36.5 °F 29.70 in North 4.0 mph 6.9 mph 95 % 0.01 in 0.0 W/m2 CLR
00:53 37.8 °F 36.5 °F 29.70 in NNE 4.3 mph 8.1 mph 95 % 0.01 in 0.0 W/m2 CLR
00:58 37.8 °F 36.2 °F 29.70 in NNE 8.2 mph 9.2 mph 94 % 0.01 in 0.0 W/m2 CLR
01:03 37.7 °F 36.1 °F 29.70 in NNE 7.9 mph 10.0 mph 94 % 0.01 in 0.0 W/m2 CLR
01:09 37.7 °F 36.1 °F 29.70 in NNE 4.3 mph 6.9 mph 94 % 0.01 in 0.0 W/m2 CLR
01:14 37.7 °F 36.1 °F 29.70 in NE 8.8 mph 11.5 mph 94 % 0.01 in 0.0 W/m2 CLR
01:19 37.6 °F 36.0 °F 29.70 in NE 5.8 mph 7.0 mph 94 % 0.01 in 0.0 W/m2 CLR
01:24 37.6 °F 36.3 °F 29.70 in NE 5.1 mph 8.1 mph 95 % 0.00 in 0.0 W/m2 CLR
01:29 37.6 °F 36.3 °F 29.70 in NNE 6.7 mph 9.2 mph 95 % 0.00 in 0.0 W/m2 CLR
01:34 37.5 °F 36.2 °F 29.70 in NNE 6.0 mph 11.5 mph 95 % 0.00 in 0.0 W/m2 CLR
01:39 37.5 °F 36.2 °F 29.70 in NNE 9.7 mph 11.5 mph 95 % 0.00 in 0.0 W/m2 CLR
01:44 37.6 °F 36.3 °F 29.70 in NNE 6.2 mph 10.4 mph 95 % 0.00 in 0.0 W/m2 CLR
01:49 37.5 °F 36.2 °F 29.70 in NNE 6.7 mph 9.2 mph 95 % 0.00 in 0.0 W/m2 CLR
01:54 37.5 °F 36.2 °F 29.70 in NNE 9.9 mph 13.8 mph 95 % 0.00 in 0.0 W/m2 CLR
01:59 37.5 °F 36.2 °F 29.70 in NNE 8.6 mph 11.5 mph 95 % 0.00 in 0.0 W/m2 CLR
02:04 37.5 °F 36.2 °F 29.70 in ENE 4.7 mph 6.9 mph 95 % 0.00 in 0.0 W/m2 CLR
02:09 37.4 °F 36.1 °F 29.70 in North 6.8 mph 10.4 mph 95 % 0.00 in 0.0 W/m2 CLR
02:14 37.4 °F 36.1 °F 29.70 in NE 5.8 mph 9.2 mph 95 % 0.00 in 0.0 W/m2 CLR
02:19 37.4 °F 36.1 °F 29.71 in NNE 4.2 mph 5.8 mph 95 % 0.00 in 0.0 W/m2 CLR
02:24 37.4 °F 36.1 °F 29.71 in NNE 5.9 mph 9.2 mph 95 % 0.00 in 0.0 W/m2 CLR
02:29 37.3 °F 36.0 °F 29.71 in NNE 6.5 mph 10.4 mph 95 % 0.00 in 0.0 W/m2 CLR
02:34 37.3 °F 36.0 °F 29.71 in NE 6.2 mph 9.2 mph 95 % 0.00 in 0.0 W/m2 CLR
02:39 37.3 °F 36.0 °F 29.71 in NNE 5.9 mph 10.4 mph 95 % 0.00 in 0.0 W/m2 CLR
02:44 37.3 °F 36.0 °F 29.71 in NNE 5.4 mph 8.1 mph 95 % 0.00 in 0.0 W/m2 CLR
02:49 37.3 °F 36.0 °F 29.71 in NNE 8.3 mph 11.5 mph 95 % 0.00 in 0.0 W/m2 CLR
02:54 37.2 °F 35.9 °F 29.71 in NNE 5.1 mph 10.0 mph 95 % 0.00 in 0.0 W/m2 CLR
02:59 37.2 °F 35.9 °F 29.71 in NNE 5.5 mph 8.1 mph 95 % 0.00 in 0.0 W/m2 CLR
03:04 37.2 °F 35.9 °F 29.72 in North 4.7 mph 8.1 mph 95 % 0.00 in 0.0 W/m2 CLR
03:09 37.2 °F 35.9 °F 29.72 in North 3.1 mph 3.5 mph 95 % 0.00 in 0.0 W/m2 CLR
03:14 37.2 °F 35.9 °F 29.72 in NNE 3.7 mph 7.0 mph 95 % 0.00 in 0.0 W/m2 CLR
03:19 37.1 °F 35.8 °F 29.72 in NNE 4.9 mph 8.1 mph 95 % 0.00 in 0.0 W/m2 CLR
03:24 37.1 °F 35.8 °F 29.72 in NNW 6.6 mph 10.4 mph 95 % 0.00 in 0.0 W/m2 CLR
03:29 37.1 °F 35.8 °F 29.72 in NNE 5.0 mph 9.2 mph 95 % 0.00 in 0.0 W/m2 CLR
03:34 37.0 °F 35.7 °F 29.72 in NNE 4.4 mph 5.8 mph 95 % 0.00 in 0.0 W/m2 CLR
03:39 36.9 °F 35.6 °F 29.73 in NE 5.8 mph 8.1 mph 95 % 0.00 in 0.0 W/m2 CLR
03:44 36.9 °F 35.6 °F 29.73 in NNE 3.8 mph 4.6 mph 95 % 0.00 in 0.0 W/m2 CLR
03:49 36.9 °F 35.6 °F 29.73 in North 1.0 mph 4.0 mph 95 % 0.00 in 0.0 W/m2 CLR
03:54 37.1 °F 35.8 °F 29.73 in North 2.7 mph 6.0 mph 95 % 0.00 in 0.0 W/m2 CLR
03:59 37.1 °F 35.8 °F 29.74 in North 1.9 mph 3.5 mph 95 % 0.00 in 0.0 W/m2 CLR
04:04 37.1 °F 35.8 °F 29.74 in North 0.7 mph 3.5 mph 95 % 0.00 in 0.0 W/m2 CLR
04:09 37.0 °F 35.7 °F 29.74 in North 1.1 mph 9.2 mph 95 % 0.00 in 0.0 W/m2 CLR
04:14 36.9 °F 35.3 °F 29.74 in NNE 3.7 mph 4.6 mph 94 % 0.00 in 0.0 W/m2 CLR
04:19 36.7 °F 35.4 °F 29.74 in NNE 2.0 mph 5.0 mph 95 % 0.00 in 0.0 W/m2 CLR
04:24 36.7 °F 35.4 °F 29.74 in NNW 2.4 mph 8.1 mph 95 % 0.00 in 0.0 W/m2 CLR
04:29 36.7 °F 35.4 °F 29.75 in NNW 2.7 mph 8.1 mph 95 % 0.00 in 0.0 W/m2 CLR
04:34 36.8 °F 35.5 °F 29.75 in NNW 0.7 mph 3.5 mph 95 % 0.00 in 0.0 W/m2 CLR
04:39 36.8 °F 35.5 °F 29.75 in NNW 5.9 mph 12.0 mph 95 % 0.00 in 0.0 W/m2 CLR
04:44 36.8 °F 35.5 °F 29.75 in NNW 2.2 mph 4.6 mph 95 % 0.00 in 0.0 W/m2 CLR
04:49 36.7 °F 35.4 °F 29.76 in North 5.4 mph 8.1 mph 95 % 0.00 in 0.0 W/m2 CLR
04:54 36.6 °F 35.3 °F 29.76 in NNW 2.7 mph 4.6 mph 95 % 0.00 in 0.0 W/m2 CLR
04:55 36.6 °F 35.3 °F 29.76 in NNW 2.6 mph 4.6 mph 95 % 0.00 in 0.0 W/m2 CLR
05:00 36.5 °F 35.2 °F 29.76 in NNW 2.2 mph 3.5 mph 95 % 0.00 in 0.0 W/m2 CLR
05:05 36.5 °F 34.9 °F 29.76 in NNE 3.1 mph 3.5 mph 94 % 0.00 in 0.0 W/m2 CLR
05:06 36.5 °F 34.9 °F 29.76 in NNW 2.2 mph 3.5 mph 94 % 0.00 in 0.0 W/m2 CLR
05:11 36.4 °F 34.8 °F 29.77 in NNW 3.0 mph 8.1 mph 94 % 0.00 in 0.0 W/m2 CLR
05:16 36.3 °F 34.7 °F 29.77 in NNW 1.6 mph 3.5 mph 94 % 0.00 in 0.0 W/m2 CLR
05:21 36.3 °F 34.7 °F 29.77 in North 2.1 mph 8.1 mph 94 % 0.00 in 0.0 W/m2 CLR
05:26 36.2 °F 34.6 °F 29.77 in North 1.0 mph 5.0 mph 94 % 0.00 in 0.0 W/m2 CLR
05:31 36.2 °F 34.6 °F 29.77 in Calm     94 % 0.00 in 0.0 W/m2 CLR
05:36 36.2 °F 34.6 °F 29.77 in North 3.1 mph 8.1 mph 94 % 0.00 in 0.0 W/m2 CLR
05:41 36.2 °F 34.6 °F 29.78 in North 2.6 mph 5.8 mph 94 % 0.00 in 0.0 W/m2 CLR
05:46 36.2 °F 34.6 °F 29.78 in NNW 1.6 mph 3.5 mph 94 % 0.00 in 0.0 W/m2 CLR
05:51 36.3 °F 34.7 °F 29.78 in NNW 0.2 mph 3.5 mph 94 % 0.00 in 0.0 W/m2 CLR
05:56 36.3 °F 34.7 °F 29.79 in Calm   1.2 mph 94 % 0.00 in 0.0 W/m2 CLR
06:01 36.3 °F 34.7 °F 29.79 in Calm   1.2 mph 94 % 0.00 in 0.0 W/m2 CLR
06:06 36.5 °F 34.9 °F 29.79 in NNW 0.2 mph 1.2 mph 94 % 0.00 in 0.0 W/m2 CLR
06:11 36.6 °F 35.0 °F 29.79 in Calm     94 % 0.00 in 0.0 W/m2 CLR
06:16 36.7 °F 35.1 °F 29.79 in Calm     94 % 0.00 in 0.0 W/m2 CLR
06:21 36.7 °F 35.1 °F 29.79 in Calm     94 % 0.00 in 0.0 W/m2 CLR
06:26 36.8 °F 35.2 °F 29.79 in Calm     94 % 0.00 in 0.0 W/m2 CLR
06:31 36.8 °F 35.2 °F 29.80 in NW 1.4 mph 3.5 mph 94 % 0.00 in 0.0 W/m2 CLR
06:36 36.8 °F 35.2 °F 29.80 in Calm     94 % 0.00 in 0.0 W/m2 CLR
06:41 36.9 °F 35.3 °F 29.80 in Calm     94 % 0.00 in 0.0 W/m2 CLR
06:46 37.0 °F 35.4 °F 29.80 in Calm     94 % 0.00 in 0.0 W/m2 CLR
06:51 37.1 °F 35.5 °F 29.80 in Calm   1.2 mph 94 % 0.00 in 0.0 W/m2 CLR
06:56 37.2 °F 35.6 °F 29.81 in WNW 2.6 mph 4.0 mph 94 % 0.00 in 7.0 W/m2 CLR
06:57 37.1 °F 35.5 °F 29.81 in WNW 2.6 mph 3.5 mph 94 % 0.00 in 7.0 W/m2 CLR
07:02 37.2 °F 35.6 °F 29.81 in Calm     94 % 0.00 in 9.0 W/m2 CLR
07:07 37.3 °F 35.7 °F 29.81 in NW 1.7 mph 4.6 mph 94 % 0.00 in 12.0 W/m2 CLR
07:12 37.4 °F 35.8 °F 29.81 in Calm   4.6 mph 94 % 0.00 in 19.0 W/m2 CLR
07:17 37.5 °F 35.9 °F 29.81 in Calm     94 % 0.00 in 23.0 W/m2 CLR
07:22 37.6 °F 36.0 °F 29.82 in Calm     94 % 0.00 in 23.0 W/m2 CLR
07:23 37.6 °F 36.0 °F 29.82 in NW 0.2 mph 2.0 mph 94 % 0.00 in 23.0 W/m2 CLR
07:28 37.6 °F 36.0 °F 29.82 in Calm     94 % 0.00 in 32.0 W/m2 CLR
07:33 37.7 °F 36.1 °F 29.82 in NW 0.3 mph 3.5 mph 94 % 0.00 in 42.0 W/m2 SCT
07:38 37.8 °F 36.2 °F 29.83 in NW 2.3 mph 4.6 mph 94 % 0.00 in 39.0 W/m2 SCT
07:43 37.9 °F 36.3 °F 29.83 in NW 0.6 mph 5.8 mph 94 % 0.00 in 51.0 W/m2 SCT
07:48 38.1 °F 36.5 °F 29.83 in NW 1.5 mph 5.8 mph 94 % 0.00 in 62.0 W/m2 SCT
07:53 38.1 °F 36.3 °F 29.83 in NW 1.6 mph 5.8 mph 93 % 0.00 in 67.0 W/m2 SCT
07:58 38.3 °F 36.5 °F 29.83 in NNW 0.5 mph 4.0 mph 93 % 0.00 in 72.0 W/m2 SCT
08:03 38.4 °F 36.6 °F 29.84 in NNW 1.7 mph 4.6 mph 93 % 0.00 in 77.0 W/m2 SCT
08:08 38.7 °F 36.9 °F 29.83 in NW 1.1 mph 3.5 mph 93 % 0.00 in 95.0 W/m2 SCT
08:13 38.7 °F 36.6 °F 29.84 in NNW 4.5 mph 6.9 mph 92 % 0.00 in 97.0 W/m2 SCT
08:18 39.0 °F 36.9 °F 29.84 in NW 3.5 mph 6.9 mph 92 % 0.00 in 98.0 W/m2 SCT
08:23 39.2 °F 37.1 °F 29.84 in NNW 5.3 mph 9.2 mph 92 % 0.00 in 141.0 W/m2 FEW
08:28 39.5 °F 37.1 °F 29.84 in WNW 5.1 mph 9.2 mph 91 % 0.00 in 176.0 W/m2 FEW
08:33 40.0 °F 37.6 °F 29.84 in NW 3.0 mph 4.6 mph 91 % 0.00 in 207.0 W/m2 CLR
08:38 40.4 °F 37.7 °F 29.85 in NNW 3.8 mph 4.6 mph 90 % 0.00 in 128.0 W/m2 SCT
08:43 40.3 °F 37.3 °F 29.85 in North 7.9 mph 11.5 mph 89 % 0.00 in 278.0 W/m2 CLR
08:48 40.8 °F 37.8 °F 29.84 in NNW 4.2 mph 8.1 mph 89 % 0.00 in 216.0 W/m2 CLR
08:53 41.0 °F 37.7 °F 29.84 in NW 4.5 mph 8.1 mph 88 % 0.00 in 522.0 W/m2 CLR
08:58 41.9 °F 38.3 °F 29.85 in NW 3.3 mph 4.6 mph 87 % 0.00 in 373.0 W/m2 CLR
09:03 41.8 °F 37.9 °F 29.85 in NNW 8.6 mph 11.5 mph 86 % 0.00 in 336.0 W/m2 CLR
09:08 42.5 °F 38.6 °F 29.85 in North 5.3 mph 8.1 mph 86 % 0.00 in 698.0 W/m2 CLR
09:13 43.2 °F 39.0 °F 29.86 in NW 5.3 mph 7.0 mph 85 % 0.00 in 427.0 W/m2 CLR
09:18 43.3 °F 38.8 °F 29.86 in NW 8.7 mph 11.5 mph 84 % 0.00 in 287.0 W/m2 FEW
09:23 42.7 °F 37.6 °F 29.86 in North 3.4 mph 6.9 mph 82 % 0.00 in 283.0 W/m2 FEW
09:28 42.1 °F 37.3 °F 29.86 in NNW 1.5 mph 5.8 mph 83 % 0.00 in 186.0 W/m2 BKN
09:33 42.5 °F 37.7 °F 29.86 in NW 3.8 mph 5.8 mph 83 % 0.00 in 234.0 W/m2 SCT
09:38 42.6 °F 37.8 °F 29.86 in NW 3.4 mph 8.1 mph 83 % 0.00 in 434.0 W/m2 CLR
09:43 43.0 °F 38.2 °F 29.86 in NW 4.8 mph 8.1 mph 83 % 0.00 in 406.0 W/m2 CLR
09:48 43.5 °F 38.1 °F 29.87 in WNW 4.1 mph 8.1 mph 81 % 0.00 in 861.0 W/m2 CLR
09:53 45.1 °F 39.6 °F 29.87 in NW 4.3 mph 8.1 mph 81 % 0.00 in 914.0 W/m2 CLR
09:58 45.3 °F 38.5 °F 29.87 in NW 2.5 mph 6.9 mph 77 % 0.00 in 877.0 W/m2 CLR
10:03 44.3 °F 37.9 °F 29.87 in NW 2.4 mph 6.9 mph 78 % 0.00 in 304.0 W/m2 SCT
10:08 44.1 °F 38.0 °F 29.87 in NW 1.9 mph 4.6 mph 79 % 0.00 in 214.0 W/m2 SCT
10:13 44.1 °F 37.7 °F 29.87 in NW 6.5 mph 10.4 mph 78 % 0.00 in 373.0 W/m2 FEW
10:18 44.4 °F 37.6 °F 29.88 in NW 6.4 mph 10.4 mph 77 % 0.00 in 320.0 W/m2 SCT
10:23 44.2 °F 37.8 °F 29.88 in NW 1.8 mph 4.6 mph 78 % 0.00 in 359.0 W/m2 FEW
10:29 44.5 °F 38.1 °F 29.88 in NNW 6.2 mph 11.5 mph 78 % 0.00 in 278.0 W/m2 BKN
10:34 44.1 °F 37.3 °F 29.88 in NNW 5.6 mph 9.0 mph 77 % 0.00 in 323.0 W/m2 SCT
10:39 45.1 °F 38.6 °F 29.88 in NNE 6.3 mph 12.7 mph 78 % 0.00 in 582.0 W/m2 CLR
10:44 45.5 °F 38.4 °F 29.88 in NNE 5.3 mph 10.4 mph 76 % 0.00 in 278.0 W/m2 BKN
10:49 45.2 °F 37.7 °F 29.89 in North 3.3 mph 11.5 mph 75 % 0.00 in 285.0 W/m2 SCT
10:54 45.6 °F 38.5 °F 29.89 in NW 8.2 mph 11.5 mph 76 % 0.00 in 171.0 W/m2 BKN
10:59 44.8 °F 37.4 °F 29.89 in WNW 9.5 mph 11.5 mph 75 % 0.00 in 192.0 W/m2 BKN
11:04 44.6 °F 37.5 °F 29.89 in NW 10.2 mph 16.1 mph 76 % 0.00 in 292.0 W/m2 BKN
11:09 44.9 °F 37.8 °F 29.89 in NW 4.9 mph 7.0 mph 76 % 0.00 in 345.0 W/m2 BKN
11:14 45.0 °F 37.6 °F 29.89 in North 9.0 mph 17.3 mph 75 % 0.00 in 278.0 W/m2 BKN
11:19 45.0 °F 37.6 °F 29.89 in WNW 6.5 mph 11.5 mph 75 % 0.00 in 355.0 W/m2 BKN
11:24 45.4 °F 37.9 °F 29.89 in NNW 9.7 mph 13.8 mph 75 % 0.00 in 671.0 W/m2 CLR
11:29 46.1 °F 37.9 °F 29.89 in NNW 4.1 mph 8.1 mph 73 % 0.00 in 454.0 W/m2 FEW
11:34 46.4 °F 37.9 °F 29.89 in North 6.4 mph 11.5 mph 72 % 0.00 in 364.0 W/m2 SCT
11:39 46.4 °F 38.2 °F 29.89 in North 11.5 mph 15.0 mph 73 % 0.00 in 352.0 W/m2 SCT
11:44 45.9 °F 37.7 °F 29.89 in NW 4.2 mph 11.5 mph 73 % 0.00 in 323.0 W/m2 BKN
11:49 46.0 °F 37.8 °F 29.89 in NNW 4.4 mph 12.7 mph 73 % 0.00 in 299.0 W/m2 BKN
11:54 46.1 °F 37.6 °F 29.89 in NNW 8.0 mph 17.3 mph 72 % 0.00 in 257.0 W/m2 BKN
11:59 46.0 °F 37.8 °F 29.89 in North 2.6 mph 4.6 mph 73 % 0.00 in 359.0 W/m2 BKN
12:04 46.2 °F 37.7 °F 29.89 in North 6.1 mph 11.5 mph 72 % 0.00 in 364.0 W/m2 SCT
12:09 46.1 °F 37.2 °F 29.89 in NW 8.1 mph 12.7 mph 71 % 0.00 in 371.0 W/m2 BKN
12:14 46.2 °F 37.3 °F 29.89 in NNW 12.1 mph 17.3 mph 71 % 0.00 in 320.0 W/m2 BKN
12:19 46.3 °F 37.8 °F 29.89 in NW 3.7 mph 10.0 mph 72 % 0.00 in 397.0 W/m2 SCT
12:20 46.5 °F 38.0 °F 29.89 in NNE 4.1 mph 11.0 mph 72 % 0.00 in 378.0 W/m2 SCT
12:25 47.1 °F 38.2 °F 29.89 in North 11.8 mph 17.3 mph 71 % 0.00 in 420.0 W/m2 SCT
12:30 47.2 °F 37.9 °F 29.89 in NNW 5.9 mph 13.8 mph 70 % 0.00 in 406.0 W/m2 SCT
12:35 47.2 °F 37.9 °F 29.89 in NNW 7.0 mph 13.0 mph 70 % 0.00 in 253.0 W/m2 BKN
12:40 47.0 °F 37.7 °F 29.90 in NW 10.9 mph 15.0 mph 70 % 0.00 in 325.0 W/m2 BKN
12:45 47.0 °F 37.4 °F 29.90 in NW 10.2 mph 19.6 mph 69 % 0.00 in 234.0 W/m2 BKN
12:50 46.9 °F 37.6 °F 29.90 in NW 5.5 mph 11.5 mph 70 % 0.00 in 230.0 W/m2 BKN
12:55 46.9 °F 37.6 °F 29.90 in NW 6.1 mph 11.5 mph 70 % 0.00 in 197.0 W/m2 OVC
13:00 46.7 °F 37.4 °F 29.90 in NW 9.5 mph 15.0 mph 70 % 0.00 in 169.0 W/m2 OVC
13:02 46.7 °F 37.4 °F 29.90 in NNW 7.9 mph 18.0 mph 70 % 0.00 in 174.0 W/m2 OVC
13:07 46.4 °F 37.5 °F 29.90 in NNW 9.9 mph 12.7 mph 71 % 0.00 in 141.0 W/m2 OVC
13:12 46.3 °F 37.4 °F 29.90 in NW 6.9 mph 11.5 mph 71 % 0.00 in 142.0 W/m2 OVC
13:17 46.3 °F 37.0 °F 29.90 in North 9.6 mph 11.5 mph 70 % 0.00 in 199.0 W/m2 OVC
13:22 46.7 °F 37.8 °F 29.90 in NNE 4.4 mph 8.1 mph 71 % 0.00 in 227.0 W/m2 BKN
13:27 47.1 °F 37.8 °F 29.90 in NNE 8.2 mph 11.5 mph 70 % 0.00 in 345.0 W/m2 BKN
13:32 47.1 °F 37.8 °F 29.91 in NW 5.5 mph 9.2 mph 70 % 0.00 in 185.0 W/m2 OVC
13:37 47.2 °F 37.9 °F 29.91 in NW 9.9 mph 11.5 mph 70 % 0.00 in 130.0 W/m2 OVC
13:42 46.9 °F 37.6 °F 29.91 in NNW 11.2 mph 18.0 mph 70 % 0.00 in 139.0 W/m2 OVC
13:47 46.6 °F 37.7 °F 29.91 in NW 8.1 mph 11.5 mph 71 % 0.00 in 134.0 W/m2 OVC
13:52 46.5 °F 37.2 °F 29.92 in NNE 10.0 mph 19.6 mph 70 % 0.00 in 151.0 W/m2 OVC
13:57 46.6 °F 37.7 °F 29.92 in NNW 7.4 mph 13.0 mph 71 % 0.00 in 188.0 W/m2 OVC
14:02 46.9 °F 37.6 °F 29.92 in NW 2.9 mph 5.0 mph 70 % 0.00 in 178.0 W/m2 OVC
14:07 47.1 °F 37.8 °F 29.91 in NW 10.1 mph 16.1 mph 70 % 0.00 in 163.0 W/m2 OVC
14:12 46.9 °F 37.6 °F 29.92 in NW 9.9 mph 14.0 mph 70 % 0.00 in 146.0 W/m2 OVC
14:17 46.8 °F 37.5 °F 29.91 in NW 11.1 mph 16.1 mph 70 % 0.00 in 153.0 W/m2 OVC
14:22 46.8 °F 37.9 °F 29.91 in NW 10.3 mph 13.0 mph 71 % 0.00 in 190.0 W/m2 OVC
14:27 47.1 °F 37.8 °F 29.91 in NNW 8.5 mph 11.5 mph 70 % 0.00 in 243.0 W/m2 BKN
14:32 47.6 °F 38.3 °F 29.91 in NW 9.8 mph 16.1 mph 70 % 0.00 in 272.0 W/m2 BKN
14:37 47.6 °F 37.9 °F 29.91 in NNW 11.2 mph 16.1 mph 69 % 0.00 in 253.0 W/m2 BKN
14:43 47.7 °F 38.4 °F 29.91 in NNW 7.3 mph 11.5 mph 70 % 0.00 in 320.0 W/m2 BKN
14:48 47.9 °F 38.6 °F 29.92 in NNW 8.2 mph 13.8 mph 70 % 0.00 in 352.0 W/m2 BKN
14:53 48.0 °F 38.3 °F 29.92 in WSW 10.6 mph 12.7 mph 69 % 0.00 in 271.0 W/m2 BKN
14:58 48.0 °F 38.3 °F 29.92 in NW 9.9 mph 12.0 mph 69 % 0.00 in 315.0 W/m2 BKN
15:03 48.2 °F 38.5 °F 29.92 in NNW 13.0 mph 20.7 mph 69 % 0.00 in 320.0 W/m2 SCT
15:08 48.2 °F 38.5 °F 29.93 in West 8.1 mph 15.0 mph 69 % 0.00 in 207.0 W/m2 BKN
15:13 48.1 °F 38.4 °F 29.93 in NNW 3.5 mph 9.2 mph 69 % 0.00 in 239.0 W/m2 BKN
15:18 47.9 °F 38.2 °F 29.93 in North 7.7 mph 11.5 mph 69 % 0.00 in 220.0 W/m2 BKN
15:23 47.9 °F 38.2 °F 29.93 in North 4.7 mph 11.0 mph 69 % 0.00 in 295.0 W/m2 BKN
15:28 48.0 °F 38.3 °F 29.93 in NNW 7.2 mph 11.5 mph 69 % 0.00 in 287.0 W/m2 BKN
15:33 48.6 °F 38.9 °F 29.93 in North 10.9 mph 14.0 mph 69 % 0.00 in 227.0 W/m2 BKN
15:38 48.4 °F 38.7 °F 29.93 in NNE 5.2 mph 12.7 mph 69 % 0.00 in 330.0 W/m2 BKN
15:43 48.3 °F 38.6 °F 29.93 in NW 10.2 mph 15.0 mph 69 % 0.00 in 218.0 W/m2 BKN
15:48 48.4 °F 38.7 °F 29.93 in NW 13.3 mph 16.1 mph 69 % 0.00 in 320.0 W/m2 BKN
15:53 48.1 °F 38.0 °F 29.93 in NW 12.4 mph 20.7 mph 68 % 0.00 in 162.0 W/m2 BKN
15:58 47.9 °F 38.2 °F 29.94 in NNW 11.2 mph 15.0 mph 69 % 0.00 in 141.0 W/m2 BKN
16:03 47.8 °F 38.1 °F 29.94 in NNW 7.1 mph 17.3 mph 69 % 0.00 in 113.0 W/m2 OVC
16:08 47.6 °F 37.6 °F 29.94 in NW 10.4 mph 12.7 mph 68 % 0.00 in 121.0 W/m2 OVC
16:13 47.4 °F 37.7 °F 29.94 in NNW 8.3 mph 13.8 mph 69 % 0.00 in 144.0 W/m2 OVC
16:18 47.5 °F 37.8 °F 29.95 in North 4.5 mph 9.2 mph 69 % 0.00 in 90.0 W/m2 OVC
16:23 47.4 °F 37.7 °F 29.95 in NNW 9.1 mph 12.7 mph 69 % 0.00 in 51.0 W/m2 OVC
16:28 47.1 °F 37.4 °F 29.95 in NNW 6.6 mph 10.4 mph 69 % 0.00 in 65.0 W/m2 OVC
16:33 46.9 °F 37.6 °F 29.96 in NNW 6.1 mph 14.0 mph 70 % 0.00 in 79.0 W/m2 OVC
16:38 47.0 °F 37.7 °F 29.96 in NNW 3.7 mph 13.0 mph 70 % 0.00 in 91.0 W/m2 OVC
16:43 47.0 °F 37.7 °F 29.96 in NNW 11.6 mph 17.3 mph 70 % 0.00 in 113.0 W/m2 OVC
16:48 46.8 °F 37.5 °F 29.96 in NNE 8.4 mph 15.0 mph 70 % 0.00 in 113.0 W/m2 OVC
16:53 46.8 °F 37.9 °F 29.96 in North 4.9 mph 10.4 mph 71 % 0.00 in 125.0 W/m2 BKN
16:58 46.8 °F 37.9 °F 29.96 in North 5.0 mph 8.1 mph 71 % 0.00 in 111.0 W/m2 OVC
17:03 46.8 °F 37.9 °F 29.96 in NNW 3.5 mph 4.6 mph 71 % 0.00 in 137.0 W/m2 BKN
17:08 46.8 °F 37.9 °F 29.97 in NNE 7.2 mph 11.5 mph 71 % 0.00 in 148.0 W/m2 BKN
17:13 46.7 °F 37.8 °F 29.97 in North 2.5 mph 8.1 mph 71 % 0.00 in 97.0 W/m2 OVC
17:18 46.8 °F 37.9 °F 29.97 in NNE 6.1 mph 13.0 mph 71 % 0.00 in 107.0 W/m2 BKN
17:23 46.7 °F 37.4 °F 29.98 in NW 4.2 mph 10.4 mph 70 % 0.00 in 97.0 W/m2 BKN
17:28 46.8 °F 37.5 °F 29.98 in NNW 2.2 mph 4.6 mph 70 % 0.00 in 132.0 W/m2 BKN
17:33 46.8 °F 37.5 °F 29.98 in NNW 7.2 mph 11.5 mph 70 % 0.00 in 134.0 W/m2 BKN
17:38 46.8 °F 37.5 °F 29.98 in North 5.6 mph 11.0 mph 70 % 0.00 in 102.0 W/m2 BKN
17:43 46.7 °F 37.4 °F 29.98 in NNE 5.7 mph 12.0 mph 70 % 0.00 in 63.0 W/m2 OVC
17:48 46.5 °F 37.2 °F 29.99 in North 4.3 mph 8.1 mph 70 % 0.00 in 53.0 W/m2 OVC
17:53 46.4 °F 37.1 °F 29.99 in NNW 7.2 mph 11.5 mph 70 % 0.00 in 39.0 W/m2 OVC
17:58 46.3 °F 37.0 °F 29.99 in NNE 2.8 mph 4.6 mph 70 % 0.00 in 46.0 W/m2 OVC
18:03 46.3 °F 37.4 °F 29.99 in NNW 2.0 mph 8.1 mph 71 % 0.00 in 81.0 W/m2 BKN
18:08 46.3 °F 37.4 °F 29.99 in North 6.7 mph 10.4 mph 71 % 0.00 in 58.0 W/m2 BKN
18:13 46.3 °F 37.4 °F 29.99 in NNW 6.5 mph 11.5 mph 71 % 0.00 in 74.0 W/m2 BKN
18:18 46.3 °F 37.0 °F 30.00 in NNE 9.1 mph 13.8 mph 70 % 0.00 in 79.0 W/m2 SCT
18:23 46.4 °F 37.1 °F 30.00 in North 5.8 mph 10.4 mph 70 % 0.00 in 47.0 W/m2 BKN
18:28 46.4 °F 37.1 °F 30.01 in North 1.3 mph 8.0 mph 70 % 0.00 in 54.0 W/m2 BKN
18:33 46.4 °F 37.1 °F 30.01 in North 4.3 mph 10.4 mph 70 % 0.00 in 39.0 W/m2 BKN
18:38 46.3 °F 36.7 °F 30.02 in NW 8.7 mph 15.0 mph 69 % 0.00 in 54.0 W/m2 SCT
18:43 46.2 °F 36.6 °F 30.02 in NW 8.3 mph 13.0 mph 69 % 0.00 in 28.0 W/m2 BKN
18:48 45.8 °F 36.2 °F 30.03 in NNW 6.7 mph 11.5 mph 69 % 0.00 in 28.0 W/m2 BKN
18:53 45.6 °F 36.4 °F 30.03 in NNW 7.5 mph 13.8 mph 70 % 0.00 in 19.0 W/m2 BKN
18:58 45.5 °F 36.3 °F 30.04 in NW 6.8 mph 15.0 mph 70 % 0.00 in 11.0 W/m2 OVC
19:03 45.4 °F 36.2 °F 30.04 in NNW 5.6 mph 10.4 mph 70 % 0.00 in 5.0 W/m2 OVC
19:08 45.3 °F 36.1 °F 30.05 in NW 6.1 mph 11.5 mph 70 % 0.00 in 0.0 W/m2 OVC
19:13 45.1 °F 36.3 °F 30.05 in NNW 8.7 mph 13.8 mph 71 % 0.00 in 0.0 W/m2 OVC
19:18 45.0 °F 36.2 °F 30.05 in NNW 3.2 mph 8.0 mph 71 % 0.00 in 0.0 W/m2 OVC
19:23 44.9 °F 36.1 °F 30.05 in NNW 3.1 mph 9.2 mph 71 % 0.00 in 0.0 W/m2 CLR
19:28 44.8 °F 36.0 °F 30.05 in NW 2.9 mph 6.9 mph 71 % 0.00 in 0.0 W/m2 CLR
19:33 44.7 °F 35.9 °F 30.05 in Calm   3.5 mph 71 % 0.00 in 0.0 W/m2 CLR
19:38 44.7 °F 36.2 °F 30.05 in Calm     72 % 0.00 in 0.0 W/m2 CLR
19:43 44.6 °F 36.1 °F 30.05 in NW 2.8 mph 4.6 mph 72 % 0.00 in 0.0 W/m2 CLR
19:48 44.5 °F 36.0 °F 30.05 in NW 8.5 mph 10.4 mph 72 % 0.00 in 0.0 W/m2 CLR
19:53 44.4 °F 35.9 °F 30.06 in NNW 4.3 mph 9.2 mph 72 % 0.00 in 0.0 W/m2 CLR
19:58 44.3 °F 35.8 °F 30.06 in WNW 6.0 mph 9.0 mph 72 % 0.00 in 0.0 W/m2 CLR
20:03 44.2 °F 35.7 °F 30.07 in NW 0.5 mph 3.5 mph 72 % 0.00 in 0.0 W/m2 CLR
20:08 44.1 °F 35.6 °F 30.06 in Calm     72 % 0.00 in 0.0 W/m2 CLR
20:13 44.1 °F 35.6 °F 30.07 in NNW 1.1 mph 5.0 mph 72 % 0.00 in 0.0 W/m2 CLR
20:18 44.0 °F 35.6 °F 30.07 in NW 0.1 mph   72 % 0.00 in 0.0 W/m2 CLR
20:23 44.0 °F 35.6 °F 30.07 in NW 1.2 mph 6.0 mph 72 % 0.00 in 0.0 W/m2 CLR
20:28 44.0 °F 35.6 °F 30.07 in NNW 1.0 mph 4.6 mph 72 % 0.00 in 0.0 W/m2 CLR
20:33 44.0 °F 35.6 °F 30.07 in Calm     72 % 0.00 in 0.0 W/m2 CLR
20:38 43.8 °F 35.4 °F 30.07 in Calm     72 % 0.00 in 0.0 W/m2 CLR
20:43 43.7 °F 35.3 °F 30.07 in NW 1.1 mph 3.5 mph 72 % 0.00 in 0.0 W/m2 CLR
20:48 43.6 °F 35.2 °F 30.07 in NW 0.5 mph   72 % 0.00 in 0.0 W/m2 CLR
20:53 43.4 °F 35.0 °F 30.07 in NNW 2.6 mph 4.6 mph 72 % 0.00 in 0.0 W/m2 CLR
20:59 43.2 °F 35.1 °F 30.07 in NNW 0.8 mph 4.6 mph 73 % 0.00 in 0.0 W/m2 CLR
21:04 43.0 °F 34.9 °F 30.07 in NNW 1.7 mph 6.9 mph 73 % 0.00 in 0.0 W/m2 CLR
21:09 43.1 °F 35.0 °F 30.07 in NNW 0.9 mph 3.5 mph 73 % 0.00 in 0.0 W/m2 CLR
21:14 43.1 °F 35.0 °F 30.07 in North 2.0 mph 3.5 mph 73 % 0.00 in 0.0 W/m2 CLR
21:19 43.1 °F 35.0 °F 30.07 in North 1.1 mph 4.0 mph 73 % 0.00 in 0.0 W/m2 CLR
21:24 43.2 °F 35.1 °F 30.08 in NNW 1.2 mph 3.5 mph 73 % 0.00 in 0.0 W/m2 CLR
21:29 43.2 °F 35.1 °F 30.08 in Calm     73 % 0.00 in 0.0 W/m2 CLR
21:34 43.2 °F 35.1 °F 30.08 in NW 1.8 mph 3.5 mph 73 % 0.00 in 0.0 W/m2 CLR
21:39 43.3 °F 35.2 °F 30.08 in Calm     73 % 0.00 in 0.0 W/m2 CLR
21:44 43.2 °F 35.1 °F 30.08 in Calm     73 % 0.00 in 0.0 W/m2 CLR
21:49 43.1 °F 35.0 °F 30.08 in Calm   1.2 mph 73 % 0.00 in 0.0 W/m2 CLR
21:54 43.1 °F 35.4 °F 30.09 in NW 0.5 mph 3.5 mph 74 % 0.00 in 0.0 W/m2 CLR
21:59 43.0 °F 35.3 °F 30.09 in Calm     74 % 0.00 in 0.0 W/m2 CLR
22:04 42.9 °F 35.2 °F 30.09 in Calm     74 % 0.00 in 0.0 W/m2 CLR
22:08 42.9 °F 35.2 °F 30.10 in NW 0.1 mph   74 % 0.00 in 0.0 W/m2 CLR
22:13 42.9 °F 35.2 °F 30.10 in NNW 1.2 mph 3.5 mph 74 % 0.00 in 0.0 W/m2 CLR
22:18 43.0 °F 35.3 °F 30.10 in Calm     74 % 0.00 in 0.0 W/m2 CLR
22:23 43.0 °F 35.3 °F 30.10 in Calm     74 % 0.00 in 0.0 W/m2 CLR
22:28 42.9 °F 35.5 °F 30.10 in Calm     75 % 0.00 in 0.0 W/m2 CLR
22:33 43.0 °F 35.6 °F 30.10 in NNW 1.5 mph 4.0 mph 75 % 0.00 in 0.0 W/m2 CLR
22:38 43.0 °F 35.6 °F 30.10 in Calm   2.3 mph 75 % 0.00 in 0.0 W/m2 CLR
22:43 42.9 °F 35.5 °F 30.10 in NW 0.1 mph   75 % 0.00 in 0.0 W/m2 CLR
22:48 42.9 °F 35.5 °F 30.10 in NNW 1.2 mph 2.0 mph 75 % 0.00 in 0.0 W/m2 CLR
22:53 42.9 °F 35.5 °F 30.10 in Calm   1.2 mph 75 % 0.00 in 0.0 W/m2 CLR
22:58 42.9 °F 35.5 °F 30.10 in Calm     75 % 0.00 in 0.0 W/m2 CLR
23:03 42.9 °F 35.5 °F 30.10 in Calm     75 % 0.00 in 0.0 W/m2 CLR
23:08 42.9 °F 35.5 °F 30.11 in Calm     75 % 0.00 in 0.0 W/m2 CLR
23:13 42.9 °F 35.5 °F 30.11 in Calm     75 % 0.00 in 0.0 W/m2 CLR
23:18 42.9 °F 35.5 °F 30.11 in Calm   1.2 mph 75 % 0.00 in 0.0 W/m2 CLR
23:23 42.9 °F 35.5 °F 30.11 in Calm     75 % 0.00 in 0.0 W/m2 CLR
23:28 42.9 °F 35.5 °F 30.11 in NW 0.1 mph   75 % 0.00 in 0.0 W/m2 CLR
23:33 43.0 °F 35.6 °F 30.11 in Calm     75 % 0.00 in 0.0 W/m2 CLR
23:38 42.9 °F 35.5 °F 30.11 in Calm     75 % 0.00 in 0.0 W/m2 CLR
23:43 42.9 °F 35.5 °F 30.11 in Calm     75 % 0.00 in 0.0 W/m2 CLR
23:48 42.9 °F 35.5 °F 30.11 in Calm     75 % 0.00 in 0.0 W/m2 CLR
23:53 42.9 °F 35.5 °F 30.11 in Calm     75 % 0.00 in 0.0 W/m2 CLR
23:58 42.8 °F 35.4 °F 30.11 in Calm     75 % 0.00 in 0.0 W/m2 CLR
Air Products Campus Weather
Compliments of Weather Underground - 3.5 mb